createdAt,value
2018-08-06T00:02:18.070Z,102088.30
2018-08-06T00:04:45.749Z,102083.89
2018-08-06T00:07:13.933Z,102081.67
2018-08-06T00:09:41.955Z,102083.00
2018-08-06T00:12:09.584Z,102078.58
2018-08-06T00:14:37.577Z,102081.67
2018-08-06T00:17:05.359Z,102076.85
2018-08-06T00:19:33.146Z,102079.11
2018-08-06T00:22:00.869Z,102083.94
2018-08-06T00:24:29.048Z,102081.76
2018-08-06T00:26:56.662Z,102080.39
2018-08-06T00:29:24.553Z,102072.00
2018-08-06T00:31:52.637Z,102074.65
2018-08-06T00:34:20.592Z,102070.22
2018-08-06T00:36:48.209Z,102067.61
2018-08-06T00:39:16.232Z,102066.77
2018-08-06T00:41:43.857Z,102065.00
2018-08-06T00:44:11.487Z,102072.08
2018-08-06T00:46:39.463Z,102067.26
2018-08-06T00:49:07.432Z,102072.08
2018-08-06T00:51:35.134Z,102069.42
2018-08-06T00:54:03.162Z,102071.23
2018-08-06T00:56:31.033Z,102072.56
2018-08-06T00:58:58.854Z,102074.37
2018-08-06T01:01:26.511Z,102076.14
2018-08-06T01:03:54.172Z,102081.85
2018-08-06T01:06:21.853Z,102077.03
2018-08-06T01:08:50.043Z,102070.00
2018-08-06T01:11:17.698Z,102069.11
2018-08-06T01:13:45.361Z,102066.02
2018-08-06T01:16:13.938Z,102061.59
2018-08-06T01:18:41.899Z,102057.22
2018-08-06T01:21:09.546Z,102058.98
2018-08-06T01:23:37.403Z,102061.20
2018-08-06T01:26:05.438Z,102062.97
2018-08-06T01:28:33.321Z,102060.31
2018-08-06T01:31:00.999Z,102058.98
2018-08-06T01:33:29.285Z,102055.49
2018-08-06T01:35:57.230Z,102059.04
2018-08-06T01:38:25.459Z,102051.56
2018-08-06T01:40:53.102Z,102052.89
2018-08-06T01:43:21.013Z,102049.35
2018-08-06T01:45:49.031Z,102052.93
2018-08-06T01:48:16.725Z,102053.38
2018-08-06T01:50:44.349Z,102049.97
2018-08-06T01:53:12.611Z,102049.09
2018-08-06T01:55:40.543Z,102048.69
2018-08-06T01:58:08.164Z,102041.20
2018-08-06T02:00:35.924Z,102044.31
2018-08-06T02:03:03.575Z,102042.10
2018-08-06T02:05:31.238Z,102039.00
2018-08-06T02:07:59.188Z,102037.67
2018-08-06T02:10:26.897Z,102031.97
2018-08-06T02:12:54.593Z,102032.47
2018-08-06T02:15:22.273Z,102027.64
2018-08-06T02:17:49.945Z,102026.31
2018-08-06T02:20:17.809Z,102025.88
2018-08-06T02:22:47.035Z,102020.58
2018-08-06T02:25:15.002Z,102021.01
2018-08-06T02:27:43.006Z,102004.05
2018-08-06T02:30:12.328Z,102014.42
2018-08-06T02:32:40.167Z,102012.66
2018-08-06T02:35:10.466Z,102017.97
2018-08-06T02:37:38.214Z,102010.48
2018-08-06T02:40:07.743Z,102006.11
2018-08-06T02:42:35.800Z,102010.53
2018-08-06T02:45:04.250Z,102006.16
2018-08-06T02:47:32.218Z,102008.33
2018-08-06T02:50:00.230Z,102010.13
2018-08-06T02:52:27.884Z,102000.45
2018-08-06T02:54:55.489Z,101998.30
2018-08-06T02:57:23.191Z,101994.77
2018-08-06T02:59:50.809Z,101994.31
2018-08-06T03:02:18.429Z,101989.45
2018-08-06T03:04:46.668Z,101992.19
2018-08-06T03:07:14.356Z,101989.98
2018-08-06T03:09:42.091Z,101998.34
2018-08-06T03:12:09.996Z,102001.03
2018-08-06T03:14:37.880Z,101998.86
2018-08-06T03:17:06.413Z,101997.98
2018-08-06T03:19:34.035Z,101994.93
2018-08-06T03:22:01.736Z,101921.27
2018-08-06T03:24:29.753Z,101992.28
2018-08-06T03:26:57.881Z,101991.88
2018-08-06T03:29:25.780Z,101992.73
2018-08-06T03:31:53.436Z,102001.61
2018-08-06T03:34:21.052Z,101995.91
2018-08-06T03:36:48.704Z,101998.55
2018-08-06T03:39:16.309Z,101993.70
2018-08-06T03:41:44.309Z,102004.30
2018-08-06T03:44:11.966Z,101993.30
2018-08-06T03:46:39.640Z,101989.36
2018-08-06T03:49:07.546Z,101987.11
2018-08-06T03:51:35.188Z,101991.17
2018-08-06T03:54:02.880Z,101984.98
2018-08-06T03:56:30.949Z,101984.06
2018-08-06T03:58:58.810Z,101980.13
2018-08-06T04:01:26.472Z,101980.56
2018-08-06T04:03:54.163Z,101981.41
2018-08-06T04:06:21.833Z,101982.73
2018-08-06T04:08:49.504Z,101977.39
2018-08-06T04:11:17.149Z,101978.27
2018-08-06T04:13:45.274Z,101979.11
2018-08-06T04:16:13.326Z,101979.11
2018-08-06T04:18:41.006Z,101976.46
2018-08-06T04:21:08.633Z,101976.41
2018-08-06T04:23:36.594Z,101976.41
2018-08-06T04:26:04.376Z,101976.02
2018-08-06T04:28:32.309Z,101976.86
2018-08-06T04:30:59.972Z,101978.63
2018-08-06T04:33:27.857Z,101972.39
2018-08-06T04:35:56.052Z,101975.05
2018-08-06T04:38:23.995Z,101980.75
2018-08-06T04:40:52.066Z,101982.95
2018-08-06T04:43:20.925Z,101983.35
2018-08-06T04:45:48.540Z,101981.15
2018-08-06T04:48:16.248Z,101981.15
2018-08-06T04:50:44.220Z,101974.52
2018-08-06T04:53:11.930Z,101983.80
2018-08-06T04:55:39.890Z,101976.28
2018-08-06T04:58:07.856Z,101981.15
2018-08-06T05:00:35.506Z,101976.28
2018-08-06T05:03:03.138Z,101977.61
2018-08-06T05:05:31.140Z,101981.09
2018-08-06T05:07:58.832Z,101978.45
2018-08-06T05:10:26.718Z,101983.31
2018-08-06T05:12:54.760Z,101981.98
2018-08-06T05:15:22.997Z,101981.45
2018-08-06T05:17:50.863Z,101987.23
2018-08-06T05:20:18.583Z,101980.13
2018-08-06T05:22:46.538Z,101981.02
2018-08-06T05:25:14.494Z,101977.48
2018-08-06T05:27:42.273Z,101986.72
2018-08-06T05:30:11.592Z,101987.59
2018-08-06T05:32:39.482Z,101983.61
2018-08-06T05:35:07.701Z,101983.57
2018-08-06T05:37:35.361Z,101984.02
2018-08-06T05:40:03.386Z,101987.55
2018-08-06T05:42:31.059Z,101984.81
2018-08-06T05:44:58.993Z,101982.59
2018-08-06T05:47:26.915Z,101979.46
2018-08-06T05:49:54.793Z,101990.50
2018-08-06T05:52:22.492Z,101990.02
2018-08-06T05:54:50.628Z,101986.45
2018-08-06T05:57:18.236Z,101988.20
2018-08-06T05:59:45.876Z,101992.06
2018-08-06T06:02:14.086Z,101990.28
2018-08-06T06:04:41.781Z,101985.86
2018-08-06T06:07:09.396Z,101984.45
2018-08-06T06:09:37.891Z,101984.41
2018-08-06T06:12:05.549Z,101982.19
2018-08-06T06:14:33.460Z,101979.94
2018-08-06T06:17:01.200Z,101976.88
2018-08-06T06:19:29.071Z,101983.39
2018-08-06T06:21:56.733Z,101984.22
2018-08-06T06:24:24.446Z,101981.52
2018-08-06T06:26:52.105Z,101981.52
2018-08-06T06:29:20.075Z,101978.38
2018-08-06T06:31:48.006Z,101974.80
2018-08-06T06:34:15.633Z,101973.43
2018-08-06T06:36:43.522Z,101975.23
2018-08-06T06:39:12.494Z,101978.69
2018-08-06T06:41:40.614Z,101977.31
2018-08-06T06:44:08.778Z,101977.27
2018-08-06T06:46:36.858Z,101969.30
2018-08-06T06:49:04.814Z,101976.73
2018-08-06T06:51:32.421Z,101968.78
2018-08-06T06:54:00.110Z,101971.78
2018-08-06T06:56:27.746Z,101971.33
2018-08-06T06:58:55.793Z,101970.80
2018-08-06T07:01:23.502Z,101967.25
2018-08-06T07:03:51.185Z,101962.34
2018-08-06T07:06:18.865Z,101958.77
2018-08-06T07:08:46.537Z,101956.54
2018-08-06T07:11:14.184Z,101959.14
2018-08-06T07:13:42.106Z,101956.44
2018-08-06T07:16:09.805Z,101953.69
2018-08-06T07:18:37.921Z,101955.41
2018-08-06T07:21:06.072Z,101962.05
2018-08-06T07:23:33.990Z,101954.44
2018-08-06T07:26:01.751Z,101958.81
2018-08-06T07:28:29.467Z,101960.48
2018-08-06T07:30:57.137Z,101956.50
2018-08-06T07:33:24.806Z,101957.38
2018-08-06T07:35:52.810Z,101958.66
2018-08-06T07:38:20.862Z,101952.88
2018-08-06T07:40:48.844Z,101957.23
2018-08-06T07:43:16.658Z,101946.61
2018-08-06T07:45:44.221Z,101952.72
2018-08-06T07:48:12.131Z,101948.69
2018-08-06T07:50:39.762Z,101949.53
2018-08-06T07:53:07.728Z,101946.83
2018-08-06T07:55:35.718Z,101948.58
2018-08-06T07:58:03.324Z,101948.50
2018-08-06T08:00:31.030Z,101948.50
2018-08-06T08:02:58.658Z,101940.88
2018-08-06T08:05:26.655Z,101943.09
2018-08-06T08:07:54.335Z,101934.19
2018-08-06T08:10:23.243Z,101933.30
2018-08-06T08:12:51.120Z,101931.03
2018-08-06T08:15:24.508Z,101931.43
2018-08-06T08:17:52.314Z,101923.86
2018-08-06T08:20:20.126Z,101921.61
2018-08-06T08:22:47.844Z,101925.53
2018-08-06T08:25:17.105Z,101919.77
2018-08-06T08:27:44.897Z,101918.00
2018-08-06T08:30:13.762Z,101920.56
2018-08-06T08:32:41.408Z,101915.20
2018-08-06T08:35:09.658Z,101910.72
2018-08-06T08:37:37.334Z,101911.11
2018-08-06T08:40:08.686Z,101905.75
2018-08-06T08:42:36.672Z,101905.27
2018-08-06T08:45:06.179Z,101899.50
2018-08-06T08:47:34.181Z,101902.95
2018-08-06T08:50:01.809Z,101904.23
2018-08-06T08:52:29.561Z,101899.34
2018-08-06T08:54:57.169Z,101902.45
2018-08-06T08:57:24.876Z,101896.59
2018-08-06T08:59:52.861Z,101891.72
2018-08-06T09:02:20.797Z,101898.70
2018-08-06T09:04:49.037Z,101891.58
2018-08-06T09:07:16.685Z,101886.69
2018-08-06T09:09:44.348Z,101887.87
2018-08-06T09:12:11.978Z,101885.22
2018-08-06T09:14:39.961Z,101885.61
2018-08-06T09:17:07.669Z,101889.09
2018-08-06T09:19:35.289Z,101885.09
2018-08-06T09:22:03.154Z,101881.50
2018-08-06T09:24:30.776Z,101877.06
2018-08-06T09:26:58.477Z,101874.34
2018-08-06T09:29:26.191Z,101880.91
2018-08-06T09:31:53.801Z,101869.83
2018-08-06T09:34:21.760Z,101875.08
2018-08-06T09:36:49.693Z,101874.09
2018-08-06T09:39:18.017Z,101867.84
2018-08-06T09:41:46.213Z,101866.41
2018-08-06T09:44:14.431Z,101871.23
2018-08-06T09:46:42.220Z,101867.19
2018-08-06T09:49:09.953Z,101865.86
2018-08-06T09:51:37.987Z,101859.16
2018-08-06T09:54:05.934Z,101857.78
2018-08-06T09:56:33.613Z,101849.75
2018-08-06T09:59:01.285Z,101847.88
2018-08-06T10:01:34.501Z,101844.32
2018-08-06T10:04:02.229Z,101845.50
2018-08-06T10:06:30.166Z,101842.78
2018-08-06T10:08:57.551Z,101844.05
2018-08-06T10:11:25.745Z,101832.97
2018-08-06T10:13:53.597Z,101835.96
2018-08-06T10:16:21.501Z,101827.99
2018-08-06T10:18:49.337Z,101828.84
2018-08-06T10:21:17.178Z,101831.83
2018-08-06T10:23:45.120Z,101831.77
2018-08-06T10:26:12.802Z,101822.80
2018-08-06T10:28:40.693Z,101813.05
2018-08-06T10:31:08.355Z,101816.91
2018-08-06T10:33:36.027Z,101808.45
2018-08-06T10:36:03.686Z,101819.42
2018-08-06T10:38:31.554Z,101807.88
2018-08-06T10:40:59.313Z,101805.55
2018-08-06T10:43:27.009Z,101797.03
2018-08-06T10:45:54.653Z,101797.84
2018-08-06T10:48:22.710Z,101795.58
2018-08-06T10:50:50.558Z,101792.77
2018-08-06T10:53:18.198Z,101794.03
2018-08-06T10:55:45.886Z,101788.66
2018-08-06T10:58:13.575Z,101784.19
2018-08-06T11:00:41.521Z,101784.97
2018-08-06T11:03:09.769Z,101778.31
2018-08-06T11:05:38.027Z,101775.98
2018-08-06T11:08:05.689Z,101775.92
2018-08-06T11:10:33.348Z,101773.14
2018-08-06T11:13:01.023Z,101769.93
2018-08-06T11:15:28.673Z,101765.87
2018-08-06T11:17:56.377Z,101763.55
2018-08-06T11:20:24.423Z,101767.09
2018-08-06T11:22:52.676Z,101754.11
2018-08-06T11:25:21.992Z,101753.95
2018-08-06T11:27:50.167Z,101745.91
2018-08-06T11:30:19.402Z,101745.78
2018-08-06T11:32:47.606Z,101737.25
2018-08-06T11:35:15.630Z,101737.61
2018-08-06T11:37:43.380Z,101729.46
2018-08-06T11:40:12.428Z,101721.34
2018-08-06T11:42:41.171Z,101735.36
2018-08-06T11:45:10.838Z,101730.86
2018-08-06T11:47:38.893Z,101721.87
2018-08-06T11:50:06.977Z,101724.78
2018-08-06T11:52:34.595Z,101718.91
2018-08-06T11:55:02.264Z,101708.13
2018-08-06T11:57:30.316Z,101708.45
2018-08-06T11:59:58.201Z,101703.06
2018-08-06T12:02:26.378Z,101700.72
2018-08-06T12:04:54.039Z,101700.61
2018-08-06T12:07:21.783Z,101696.06
2018-08-06T12:09:49.885Z,101699.92
2018-08-06T12:12:18.123Z,101700.24
2018-08-06T12:14:45.741Z,101692.19
2018-08-06T12:17:13.475Z,101696.42
2018-08-06T12:19:42.136Z,101689.70
2018-08-06T12:22:09.802Z,101688.69
2018-08-06T12:24:37.527Z,101685.92
2018-08-06T12:27:05.561Z,101688.84
2018-08-06T12:29:33.431Z,101691.36
2018-08-06T12:32:01.092Z,101693.08
2018-08-06T12:34:28.770Z,101688.00
2018-08-06T12:36:56.758Z,101679.48
2018-08-06T12:39:24.449Z,101673.59
2018-08-06T12:41:52.115Z,101671.25
2018-08-06T12:44:19.781Z,101669.31
2018-08-06T12:46:47.690Z,101666.86
2018-08-06T12:49:15.815Z,101661.95
2018-08-06T12:51:44.169Z,101656.45
2018-08-06T12:54:12.493Z,101657.64
2018-08-06T12:56:40.706Z,101656.16
2018-08-06T12:59:08.403Z,101647.61
2018-08-06T13:01:36.053Z,101653.20
2018-08-06T13:04:03.713Z,101648.27
2018-08-06T13:06:31.382Z,101638.34
2018-08-06T13:08:59.117Z,101634.16
2018-08-06T13:11:27.145Z,101632.22
2018-08-06T13:13:54.782Z,101629.38
2018-08-06T13:16:22.706Z,101621.72
2018-08-06T13:18:50.409Z,101624.13
2018-08-06T13:21:18.314Z,101620.05
2018-08-06T13:23:45.961Z,101619.41
2018-08-06T13:26:13.856Z,101616.22
2018-08-06T13:28:41.989Z,101482.98
2018-08-06T13:31:09.644Z,101606.55
2018-08-06T13:33:37.626Z,101603.73
2018-08-06T13:36:05.325Z,101604.03
2018-08-06T13:38:33.038Z,101605.67
2018-08-06T13:41:00.933Z,101603.23
2018-08-06T13:43:28.638Z,101587.55
2018-08-06T13:45:56.606Z,101594.05
2018-08-06T13:48:24.342Z,101590.28
2018-08-06T13:50:51.974Z,101583.00
2018-08-06T13:53:19.899Z,101584.55
2018-08-06T13:55:47.958Z,101589.16
2018-08-06T13:58:15.639Z,101577.38
2018-08-06T14:00:43.264Z,101580.66
2018-08-06T14:03:10.964Z,101573.74
2018-08-06T14:05:38.598Z,101555.23
2018-08-06T14:08:06.278Z,101571.02
2018-08-06T14:10:34.414Z,101565.36
2018-08-06T14:13:02.342Z,101563.29
2018-08-06T14:15:30.193Z,101559.39
2018-08-06T14:17:57.835Z,101555.77
2018-08-06T14:20:25.836Z,101559.15
2018-08-06T14:22:53.523Z,101558.45
2018-08-06T14:25:21.546Z,101549.81
2018-08-06T14:27:49.444Z,101551.83
2018-08-06T14:30:17.635Z,101554.77
2018-08-06T14:32:45.597Z,101549.67
2018-08-06T14:35:14.294Z,101543.52
2018-08-06T14:37:41.942Z,101545.02
2018-08-06T14:40:14.081Z,101546.44
2018-08-06T14:42:42.078Z,101545.08
2018-08-06T14:45:10.350Z,101539.96
2018-08-06T14:47:38.003Z,101534.31
2018-08-06T14:50:06.833Z,101536.53
2018-08-06T14:52:34.544Z,101530.40
2018-08-06T14:55:02.229Z,101535.45
2018-08-06T14:57:36.913Z,101530.06
2018-08-06T15:00:11.321Z,101537.11
2018-08-06T15:02:39.444Z,101537.01
2018-08-06T15:05:07.280Z,101531.76
2018-08-06T15:07:35.394Z,101522.14
2018-08-06T15:10:03.252Z,101522.80
2018-08-06T15:12:30.917Z,101518.27
2018-08-06T15:14:58.857Z,101517.96
2018-08-06T15:17:27.103Z,101519.34
2018-08-06T15:19:55.166Z,101514.23
2018-08-06T15:22:22.856Z,101522.78
2018-08-06T15:24:50.533Z,101517.30
2018-08-06T15:27:18.555Z,101512.50
2018-08-06T15:29:46.266Z,101504.60
2018-08-06T15:32:14.229Z,101505.36
2018-08-06T15:34:41.928Z,101498.95
2018-08-06T15:37:09.621Z,101502.80
2018-08-06T15:39:37.511Z,101503.94
2018-08-06T15:42:05.669Z,101495.72
2018-08-06T15:44:33.330Z,101495.31
2018-08-06T15:47:00.993Z,101498.03
2018-08-06T15:49:28.732Z,101495.08
2018-08-06T15:51:56.671Z,101492.14
2018-08-06T15:54:24.468Z,101491.95
2018-08-06T15:56:52.786Z,101486.22
2018-08-06T15:59:20.702Z,101478.09
2018-08-06T16:01:48.386Z,101478.28
2018-08-06T16:04:16.102Z,101475.14
2018-08-06T16:06:43.753Z,101471.51
2018-08-06T16:09:11.796Z,101469.61
2018-08-06T16:11:39.568Z,101463.22
2018-08-06T16:14:07.250Z,101465.61
2018-08-06T16:16:34.926Z,101461.49
2018-08-06T16:19:02.575Z,101454.72
2018-08-06T16:21:30.243Z,101454.23
2018-08-06T16:23:57.887Z,101451.00
2018-08-06T16:26:25.879Z,101451.27
2018-08-06T16:28:53.531Z,101452.03
2018-08-06T16:31:21.374Z,101446.48
2018-08-06T16:33:49.060Z,101450.99
2018-08-06T16:36:16.942Z,101443.82
2018-08-06T16:38:44.826Z,101438.16
2018-08-06T16:41:12.482Z,101435.05
2018-08-06T16:43:40.291Z,101432.39
2018-08-06T16:46:07.920Z,101436.39
2018-08-06T16:48:35.890Z,101427.05
2018-08-06T16:51:03.887Z,101423.87
2018-08-06T16:53:32.141Z,101422.54
2018-08-06T16:56:00.074Z,101419.87
2018-08-06T16:58:27.747Z,101423.32
2018-08-06T17:00:55.730Z,101423.23
2018-08-06T17:03:23.569Z,101421.69
2018-08-06T17:05:51.220Z,101430.48
2018-08-06T17:08:18.900Z,101426.28
2018-08-06T17:10:46.829Z,101418.53
2018-08-06T17:13:14.757Z,101416.22
2018-08-06T17:15:42.420Z,101420.99
2018-08-06T17:18:10.333Z,101424.42
2018-08-06T17:20:38.004Z,101423.73
2018-08-06T17:23:05.738Z,101424.31
2018-08-06T17:25:33.393Z,101423.06
2018-08-06T17:28:01.325Z,101421.44
2018-08-06T17:30:28.997Z,101417.35
2018-08-06T17:32:57.025Z,101423.35
2018-08-06T17:35:24.698Z,101415.52
2018-08-06T17:37:52.345Z,101426.48
2018-08-06T17:40:20.040Z,101423.06
2018-08-06T17:42:47.867Z,101418.19
2018-08-06T17:45:18.716Z,101422.31
2018-08-06T17:47:47.217Z,101420.69
2018-08-06T17:50:17.414Z,101419.56
2018-08-06T17:52:46.311Z,101419.97
2018-08-06T17:55:14.569Z,101412.45
2018-08-06T17:57:42.925Z,101415.31
2018-08-06T18:00:11.624Z,101415.77
2018-08-06T18:02:39.596Z,101413.67
2018-08-06T18:05:09.398Z,101407.91
2018-08-06T18:07:37.157Z,101405.25
2018-08-06T18:10:06.419Z,101404.68
2018-08-06T18:12:34.113Z,101406.02
2018-08-06T18:15:02.100Z,101402.39
2018-08-06T18:17:29.961Z,101402.47
2018-08-06T18:19:57.864Z,101398.09
2018-08-06T18:22:25.876Z,101399.52
2018-08-06T18:24:54.093Z,101399.70
2018-08-06T18:27:22.152Z,101401.42
2018-08-06T18:29:49.878Z,101399.69
2018-08-06T18:32:17.502Z,101402.16
2018-08-06T18:34:45.385Z,101405.00
2018-08-06T18:37:13.747Z,101403.29
2018-08-06T18:39:41.739Z,101402.80
2018-08-06T18:42:09.381Z,101402.69
2018-08-06T18:44:37.071Z,101405.23
2018-08-06T18:47:05.185Z,101400.24
2018-08-06T18:49:33.206Z,101395.66
2018-08-06T18:52:01.461Z,101400.79
2018-08-06T18:54:29.166Z,101398.41
2018-08-06T18:56:56.824Z,101405.33
2018-08-06T18:59:24.576Z,101402.08
2018-08-06T19:01:52.531Z,101403.66
2018-08-06T19:04:20.242Z,101405.36
2018-08-06T19:06:48.471Z,101404.20
2018-08-06T19:09:16.847Z,101406.66
2018-08-06T19:11:45.571Z,101403.31
2018-08-06T19:14:21.073Z,101405.69
2018-08-06T19:16:49.944Z,101409.85
2018-08-06T19:19:21.246Z,101413.52
2018-08-06T19:21:49.255Z,101404.35
2018-08-06T19:24:23.143Z,101413.39
2018-08-06T19:26:51.212Z,101418.91
2018-08-06T19:29:18.892Z,101419.83
2018-08-06T19:31:46.757Z,101416.03
2018-08-06T19:34:14.469Z,101418.86
2018-08-06T19:36:47.885Z,101417.15
2018-08-06T19:39:16.150Z,101418.64
2018-08-06T19:41:43.926Z,101422.80
2018-08-06T19:44:11.590Z,101417.66
2018-08-06T19:46:39.265Z,101410.95
2018-08-06T19:49:12.885Z,101420.02
2018-08-06T19:51:40.870Z,101418.91
2018-08-06T19:54:09.466Z,101416.93
2018-08-06T19:56:37.196Z,101414.99
2018-08-06T19:59:05.628Z,101413.74
2018-08-06T20:01:34.085Z,101415.64
2018-08-06T20:04:01.782Z,101415.98
2018-08-06T20:06:29.423Z,101417.95
2018-08-06T20:08:57.158Z,101417.23
2018-08-06T20:11:24.801Z,101415.13
2018-08-06T20:13:52.658Z,101418.58
2018-08-06T20:16:20.272Z,101413.52
2018-08-06T20:18:48.900Z,101417.28
2018-08-06T20:21:16.890Z,101407.34
2018-08-06T20:23:45.206Z,101376.47
2018-08-06T20:26:13.070Z,101410.87
2018-08-06T20:28:41.189Z,101411.73
2018-08-06T20:31:09.395Z,101407.20
2018-08-06T20:33:37.045Z,101411.02
2018-08-06T20:36:05.594Z,101413.94
2018-08-06T20:38:33.523Z,101404.45
2018-08-06T20:41:01.163Z,101408.77
2018-08-06T20:43:29.144Z,101408.59
2018-08-06T20:45:56.810Z,101408.14
2018-08-06T20:48:24.624Z,101407.83
2018-08-06T20:50:53.361Z,101417.20
2018-08-06T20:53:21.189Z,101417.45
2018-08-06T20:55:49.369Z,101418.16
2018-08-06T20:58:17.269Z,101413.98
2018-08-06T21:00:45.568Z,101414.93
2018-08-06T21:03:13.248Z,101412.80
2018-08-06T21:05:41.304Z,101418.53
2018-08-06T21:08:09.539Z,101420.31
2018-08-06T21:10:37.384Z,101422.20
2018-08-06T21:13:05.440Z,101417.03
2018-08-06T21:15:33.273Z,101418.81
2018-08-06T21:18:01.319Z,101414.19
2018-08-06T21:20:29.452Z,101410.90
2018-08-06T21:22:57.602Z,101413.17
2018-08-06T21:25:25.981Z,101412.30
2018-08-06T21:27:54.183Z,101417.09
2018-08-06T21:30:22.223Z,101413.25
2018-08-06T21:32:55.817Z,101409.95
2018-08-06T21:35:25.098Z,101410.02
2018-08-06T21:37:54.157Z,101407.79
2018-08-06T21:40:22.802Z,101402.54
2018-08-06T21:42:51.167Z,101408.62
2018-08-06T21:45:19.728Z,101407.05
2018-08-06T21:47:47.843Z,101407.22
2018-08-06T21:50:15.858Z,101406.03
2018-08-06T21:52:44.190Z,101403.44
2018-08-06T21:55:12.276Z,101409.77
2018-08-06T21:57:39.933Z,101403.26
2018-08-06T22:00:12.237Z,101394.90
2018-08-06T22:02:40.454Z,101398.02
2018-08-06T22:05:08.537Z,101399.03
2018-08-06T22:07:36.672Z,101397.52
2018-08-06T22:10:04.876Z,101401.42
2018-08-06T22:12:32.513Z,101350.22
2018-08-06T22:15:00.446Z,101403.45
2018-08-06T22:17:28.093Z,101395.94
2018-08-06T22:19:56.031Z,101394.66
2018-08-06T22:22:23.750Z,101399.32
2018-08-06T22:24:51.408Z,101393.78
2018-08-06T22:27:19.047Z,101395.66
2018-08-06T22:29:47.033Z,101396.28
2018-08-06T22:32:15.051Z,101400.91
2018-08-06T22:34:42.729Z,101402.33
2018-08-06T22:37:10.389Z,101391.63
2018-08-06T22:39:38.677Z,101393.77
2018-08-06T22:42:06.305Z,101390.31
2018-08-06T22:44:34.552Z,101391.63
2018-08-06T22:47:02.214Z,101389.59
2018-08-06T22:49:29.858Z,101389.05
2018-08-06T22:51:57.508Z,101385.61
2018-08-06T22:54:25.143Z,101389.86
2018-08-06T22:56:52.824Z,101381.38
2018-08-06T22:59:20.488Z,101386.37
2018-08-06T23:01:48.117Z,101386.37
2018-08-06T23:04:15.766Z,101379.92
2018-08-06T23:06:43.787Z,101381.48
2018-08-06T23:09:12.615Z,101373.72
2018-08-06T23:11:41.276Z,101373.65
2018-08-06T23:14:09.094Z,101373.20
2018-08-06T23:16:37.112Z,101374.59
2018-08-06T23:19:05.086Z,101365.69
2018-08-06T23:21:33.325Z,101375.87
2018-08-06T23:24:01.775Z,101374.84
2018-08-06T23:26:29.889Z,101370.87
2018-08-06T23:28:57.528Z,101364.55
2018-08-06T23:31:25.211Z,101361.64
2018-08-06T23:33:53.284Z,101360.67
2018-08-06T23:36:20.908Z,101357.08
2018-08-06T23:38:48.571Z,101357.86
2018-08-06T23:41:16.753Z,101364.30
2018-08-06T23:43:44.415Z,101359.44
2018-08-06T23:46:12.069Z,101350.47
2018-08-06T23:48:39.752Z,101346.85
2018-08-06T23:51:07.996Z,101342.48
2018-08-06T23:53:35.630Z,101334.97
2018-08-06T23:56:03.606Z,101338.50
2018-08-06T23:58:31.672Z,101329.25
